Time,TemperatureF,DewpointF,PressureIn,WindDirection,WindDirectionDegrees,WindSpeedMPH,WindSpeedGustMPH,Humidity,HourlyPrecipIn,Conditions,Clouds,dailyrainin,SolarRadiationWatts/m^2,SoftwareType,DateUTC
2013-03-31 00:00:00,44.6,23.0,29.64,NW,313,0.0,0.0,43,0.00,,,0.00,0,weatherlink.com 1.10,2013-03-31 04:00:00,
2013-03-31 00:15:00,45.7,22.0,29.64,NW,313,0.0,0.0,39,0.00,,,0.00,0,weatherlink.com 1.10,2013-03-31 04:15:00,
2013-03-31 00:30:00,45.1,21.0,29.64,NW,313,0.0,0.0,39,0.00,,,0.00,0,weatherlink.com 1.10,2013-03-31 04:30:00,
2013-03-31 00:45:00,45.0,21.0,29.64,NW,313,0.0,0.0,39,0.00,,,0.00,0,weatherlink.com 1.10,2013-03-31 04:45:00,
2013-03-31 01:00:00,44.5,21.0,29.64,NW,313,0.0,0.0,40,0.00,,,0.00,0,weatherlink.com 1.10,2013-03-31 05:00:00,
2013-03-31 01:15:00,43.8,21.0,29.64,NW,313,0.0,0.0,41,0.00,,,0.00,0,weatherlink.com 1.10,2013-03-31 05:15:00,
2013-03-31 01:30:00,43.4,21.0,29.63,NW,313,0.0,0.0,41,0.00,,,0.00,0,weatherlink.com 1.10,2013-03-31 05:30:00,
2013-03-31 01:45:00,43.6,21.0,29.63,NW,313,0.0,0.0,40,0.00,,,0.00,0,weatherlink.com 1.10,2013-03-31 05:45:00,
2013-03-31 02:00:00,43.2,20.0,29.63,NW,313,0.0,0.0,40,0.00,,,0.00,0,weatherlink.com 1.10,2013-03-31 06:00:00,
2013-03-31 02:15:00,43.4,20.0,29.63,NW,313,0.0,0.0,39,0.00,,,0.00,0,weatherlink.com 1.10,2013-03-31 06:15:00,
2013-03-31 02:30:00,43.2,20.0,29.62,NW,313,0.0,0.0,39,0.00,,,0.00,0,weatherlink.com 1.10,2013-03-31 06:30:00,
2013-03-31 02:45:00,43.6,19.0,29.62,NNE,26,0.0,1.0,38,0.00,,,0.00,0,weatherlink.com 1.10,2013-03-31 06:45:00,
2013-03-31 03:00:00,43.1,20.0,29.62,NNE,26,0.0,1.0,39,0.00,,,0.00,0,weatherlink.com 1.10,2013-03-31 07:00:00,
2013-03-31 03:15:00,43.4,19.0,29.61,NNE,26,0.0,0.0,38,0.00,,,0.00,0,weatherlink.com 1.10,2013-03-31 07:15:00,
2013-03-31 03:30:00,43.4,19.0,29.61,NNE,26,0.0,0.0,38,0.00,,,0.00,0,weatherlink.com 1.10,2013-03-31 07:30:00,
2013-03-31 03:45:00,43.8,20.0,29.61,NNE,26,0.0,0.0,38,0.00,,,0.00,0,weatherlink.com 1.10,2013-03-31 07:45:00,
2013-03-31 04:00:00,41.8,21.0,29.61,NNE,26,0.0,0.0,43,0.00,,,0.00,0,weatherlink.com 1.10,2013-03-31 08:00:00,
2013-03-31 04:15:00,39.8,21.0,29.61,NW,323,0.0,2.0,47,0.00,,,0.00,0,weatherlink.com 1.10,2013-03-31 08:15:00,
2013-03-31 04:30:00,39.4,23.0,29.61,NW,317,0.0,0.0,52,0.00,,,0.00,0,weatherlink.com 1.10,2013-03-31 08:30:00,
2013-03-31 04:45:00,39.7,23.0,29.61,NW,317,0.0,0.0,52,0.00,,,0.00,0,weatherlink.com 1.10,2013-03-31 08:45:00,
2013-03-31 05:00:00,40.3,24.0,29.61,NW,317,0.0,0.0,52,0.00,,,0.00,0,weatherlink.com 1.10,2013-03-31 09:00:00,
2013-03-31 05:15:00,40.0,22.0,29.61,NW,317,0.0,0.0,48,0.00,,,0.00,0,weatherlink.com 1.10,2013-03-31 09:15:00,
2013-03-31 05:30:00,40.3,22.0,29.61,NW,317,0.0,0.0,48,0.00,,,0.00,0,weatherlink.com 1.10,2013-03-31 09:30:00,
2013-03-31 05:45:00,39.4,22.0,29.60,NW,317,0.0,0.0,50,0.00,,,0.00,0,weatherlink.com 1.10,2013-03-31 09:45:00,
2013-03-31 06:00:00,40.8,23.0,29.61,NW,317,0.0,0.0,49,0.00,,,0.00,0,weatherlink.com 1.10,2013-03-31 10:00:00,
2013-03-31 06:15:00,40.6,23.0,29.60,NW,317,0.0,0.0,50,0.00,,,0.00,0,weatherlink.com 1.10,2013-03-31 10:15:00,
2013-03-31 06:30:00,40.4,24.0,29.60,NW,317,0.0,0.0,53,0.00,,,0.00,0,weatherlink.com 1.10,2013-03-31 10:30:00,
2013-03-31 06:45:00,40.4,26.0,29.60,NW,317,0.0,0.0,57,0.00,,,0.00,11,weatherlink.com 1.10,2013-03-31 10:45:00,
2013-03-31 07:00:00,40.2,29.0,29.60,NW,317,0.0,0.0,64,0.00,,,0.00,26,weatherlink.com 1.10,2013-03-31 11:00:00,
2013-03-31 07:15:00,40.2,30.0,29.61,NW,317,0.0,0.0,67,0.00,,,0.00,44,weatherlink.com 1.10,2013-03-31 11:15:00,
2013-03-31 07:30:00,40.4,28.0,29.61,NW,317,0.0,0.0,62,0.00,,,0.00,58,weatherlink.com 1.10,2013-03-31 11:30:00,
2013-03-31 07:45:00,40.6,28.0,29.60,NW,317,0.0,0.0,61,0.00,,,0.00,79,weatherlink.com 1.10,2013-03-31 11:45:00,
2013-03-31 08:00:00,41.3,30.0,29.60,SW,215,0.0,0.0,65,0.00,,,0.00,123,weatherlink.com 1.10,2013-03-31 12:00:00,
2013-03-31 08:15:00,42.2,31.0,29.60,SW,215,0.0,0.0,66,0.00,,,0.00,190,weatherlink.com 1.10,2013-03-31 12:15:00,
2013-03-31 08:30:00,43.4,31.0,29.60,East,98,0.0,1.0,63,0.00,,,0.00,207,weatherlink.com 1.10,2013-03-31 12:30:00,
2013-03-31 08:45:00,44.3,32.0,29.60,East,94,0.0,3.0,63,0.00,,,0.00,274,weatherlink.com 1.10,2013-03-31 12:45:00,
2013-03-31 09:00:00,45.2,32.0,29.59,East,95,0.0,3.0,60,0.00,,,0.00,325,weatherlink.com 1.10,2013-03-31 13:00:00,
2013-03-31 09:15:00,47.1,31.0,29.59,SE,138,0.0,2.0,55,0.00,,,0.00,413,weatherlink.com 1.10,2013-03-31 13:15:00,
2013-03-31 09:30:00,47.6,33.0,29.59,ESE,122,1.0,4.0,57,0.00,,,0.00,397,weatherlink.com 1.10,2013-03-31 13:30:00,
2013-03-31 09:45:00,49.4,32.0,29.59,South,191,0.0,4.0,51,0.00,,,0.00,392,weatherlink.com 1.10,2013-03-31 13:45:00,
2013-03-31 10:00:00,50.9,32.0,29.59,South,169,4.0,4.0,48,0.00,,,0.00,315,weatherlink.com 1.10,2013-03-31 14:00:00,
2013-03-31 10:15:00,50.9,32.0,29.58,SW,220,0.0,4.0,49,0.00,,,0.00,441,weatherlink.com 1.10,2013-03-31 14:15:00,
2013-03-31 10:30:00,52.9,32.0,29.58,NW,304,0.0,4.0,46,0.00,,,0.00,406,weatherlink.com 1.10,2013-03-31 14:30:00,
2013-03-31 10:45:00,52.1,32.0,29.59,SSW,199,1.0,5.0,46,0.00,,,0.00,392,weatherlink.com 1.10,2013-03-31 14:45:00,
2013-03-31 11:00:00,52.3,32.0,29.58,South,185,1.0,5.0,46,0.00,,,0.00,304,weatherlink.com 1.10,2013-03-31 15:00:00,
2013-03-31 11:15:00,51.9,33.0,29.58,South,178,1.0,5.0,48,0.00,,,0.00,345,weatherlink.com 1.10,2013-03-31 15:15:00,
2013-03-31 11:30:00,53.2,32.0,29.57,NW,304,0.0,4.0,45,0.00,,,0.00,410,weatherlink.com 1.10,2013-03-31 15:30:00,
2013-03-31 11:46:00,53.2,30.0,29.56,South,171,1.0,8.0,42,0.00,,,0.00,380,weatherlink.com 1.10,2013-03-31 15:46:00,
2013-03-31 12:00:00,53.6,30.0,29.57,South,173,3.0,9.0,40,0.00,,,0.00,366,weatherlink.com 1.10,2013-03-31 16:00:00,
2013-03-31 12:16:00,53.1,29.0,29.55,SSE,151,3.0,12.0,39,0.00,,,0.00,318,weatherlink.com 1.10,2013-03-31 16:16:00,
2013-03-31 12:31:00,53.9,30.0,29.55,SSE,162,3.0,5.0,41,0.00,,,0.00,302,weatherlink.com 1.10,2013-03-31 16:31:00,
2013-03-31 12:46:00,53.5,31.0,29.54,South,181,0.0,7.0,42,0.00,,,0.00,267,weatherlink.com 1.10,2013-03-31 16:46:00,
2013-03-31 13:01:00,51.5,32.0,29.53,South,187,2.0,10.0,47,0.00,,,0.00,278,weatherlink.com 1.10,2013-03-31 17:01:00,
2013-03-31 13:16:00,52.3,32.0,29.52,South,169,0.0,9.0,47,0.00,,,0.00,292,weatherlink.com 1.10,2013-03-31 17:16:00,
2013-03-31 13:46:00,52.4,34.0,29.50,SSW,193,2.0,8.0,50,0.00,,,0.00,253,weatherlink.com 1.10,2013-03-31 17:46:00,
2013-03-31 14:31:00,51.8,34.0,29.49,SSE,165,4.0,7.0,50,0.00,,,0.00,137,weatherlink.com 1.10,2013-03-31 18:31:00,
2013-03-31 14:46:00,51.3,33.0,29.48,SE,146,2.0,12.0,50,0.00,,,0.00,146,weatherlink.com 1.10,2013-03-31 18:46:00,
2013-03-31 15:01:00,51.3,33.0,29.47,South,181,1.0,9.0,50,0.00,,,0.00,278,weatherlink.com 1.10,2013-03-31 19:01:00,
2013-03-31 15:16:00,51.1,34.0,29.46,SSE,163,4.0,10.0,52,0.00,,,0.00,171,weatherlink.com 1.10,2013-03-31 19:16:00,
2013-03-31 15:46:00,50.5,34.0,29.45,West,279,1.0,8.0,54,0.00,,,0.00,137,weatherlink.com 1.10,2013-03-31 19:46:00,
2013-03-31 16:01:00,50.2,34.0,29.44,ENE,59,3.0,6.0,55,0.00,,,0.00,86,weatherlink.com 1.10,2013-03-31 20:01:00,
2013-03-31 16:16:00,50.1,34.0,29.43,SSE,155,6.0,9.0,55,0.00,,,0.00,139,weatherlink.com 1.10,2013-03-31 20:16:00,
2013-03-31 16:31:00,50.2,34.0,29.42,SSW,192,5.0,8.0,54,0.00,,,0.00,79,weatherlink.com 1.10,2013-03-31 20:31:00,
2013-03-31 16:46:00,49.4,33.0,29.43,SSE,160,3.0,9.0,54,0.00,,,0.00,67,weatherlink.com 1.10,2013-03-31 20:46:00,
2013-03-31 17:16:00,49.8,34.0,29.42,South,179,2.0,8.0,55,0.00,,,0.00,83,weatherlink.com 1.10,2013-03-31 21:16:00,
2013-03-31 17:46:00,48.7,36.0,29.39,SSE,163,6.0,8.0,61,0.00,,,0.00,35,weatherlink.com 1.10,2013-03-31 21:46:00,
2013-03-31 18:16:00,48.1,37.0,29.38,South,172,0.0,5.0,65,0.00,,,0.00,23,weatherlink.com 1.10,2013-03-31 22:16:00,
2013-03-31 18:31:00,48.0,37.0,29.37,SSW,200,4.0,10.0,65,0.00,,,0.00,12,weatherlink.com 1.10,2013-03-31 22:31:00,
2013-03-31 18:46:00,47.9,37.0,29.36,South,169,3.0,7.0,66,0.00,,,0.00,11,weatherlink.com 1.10,2013-03-31 22:46:00,
2013-03-31 19:01:00,47.8,38.0,29.34,SE,138,2.0,8.0,68,0.00,,,0.00,0,weatherlink.com 1.10,2013-03-31 23:01:00,
2013-03-31 19:17:00,47.7,38.0,29.33,South,184,2.0,8.0,68,0.00,,,0.00,0,weatherlink.com 1.10,2013-03-31 23:17:00,
2013-03-31 19:32:00,47.6,38.0,29.32,ESE,115,0.0,8.0,69,0.00,,,0.00,0,weatherlink.com 1.10,2013-03-31 23:32:00,
2013-03-31 19:47:00,47.3,38.0,29.31,SE,140,5.0,10.0,71,0.00,,,0.00,0,weatherlink.com 1.10,2013-03-31 23:47:00,
2013-03-31 20:02:00,46.9,39.0,29.30,East,90,5.0,7.0,73,0.00,,,0.00,0,weatherlink.com 1.10,2013-04-01 00:02:00,
2013-03-31 20:17:00,45.8,39.0,29.29,South,172,0.0,9.0,78,0.00,,,0.00,0,weatherlink.com 1.10,2013-04-01 00:17:00,
2013-03-31 20:32:00,44.6,40.0,29.29,SE,132,0.0,6.0,85,0.00,,,0.00,0,weatherlink.com 1.10,2013-04-01 00:32:00,
2013-03-31 20:47:00,44.1,41.0,29.28,SE,146,2.0,4.0,88,0.01,,,0.01,0,weatherlink.com 1.10,2013-04-01 00:47:00,
2013-03-31 21:02:00,43.5,41.0,29.27,ESE,121,3.0,6.0,89,0.04,,,0.04,0,weatherlink.com 1.10,2013-04-01 01:02:00,
2013-03-31 21:17:00,43.3,41.0,29.27,East,98,1.0,5.0,91,0.06,,,0.06,0,weatherlink.com 1.10,2013-04-01 01:17:00,
2013-03-31 21:32:00,43.2,41.0,29.26,ESE,109,4.0,9.0,92,0.07,,,0.07,0,weatherlink.com 1.10,2013-04-01 01:32:00,
2013-03-31 21:47:00,43.2,41.0,29.25,SSE,150,0.0,7.0,92,0.07,,,0.08,0,weatherlink.com 1.10,2013-04-01 01:47:00,
2013-03-31 22:02:00,43.2,41.0,29.24,East,81,1.0,5.0,93,0.04,,,0.08,0,weatherlink.com 1.10,2013-04-01 02:02:00,
2013-03-31 22:17:00,43.1,41.0,29.23,SE,134,0.0,7.0,93,0.04,,,0.10,0,weatherlink.com 1.10,2013-04-01 02:17:00,
2013-03-31 22:32:00,43.1,41.0,29.22,ENE,61,0.0,8.0,93,0.04,,,0.11,0,weatherlink.com 1.10,2013-04-01 02:32:00,
2013-03-31 22:47:00,43.0,41.0,29.21,SE,132,2.0,5.0,93,0.05,,,0.13,0,weatherlink.com 1.10,2013-04-01 02:47:00,
2013-03-31 23:02:00,42.9,41.0,29.20,ENE,73,1.0,7.0,94,0.05,,,0.13,0,weatherlink.com 1.10,2013-04-01 03:02:00,
2013-03-31 23:17:00,43.0,41.0,29.20,NE,47,0.0,2.0,94,0.03,,,0.13,0,weatherlink.com 1.10,2013-04-01 03:17:00,
2013-03-31 23:32:00,43.1,42.0,29.20,NE,55,0.0,3.0,94,0.01,,,0.13,0,weatherlink.com 1.10,2013-04-01 03:32:00,
2013-03-31 23:47:00,43.1,42.0,29.18,NE,55,0.0,0.0,94,0.00,,,0.13,0,weatherlink.com 1.10,2013-04-01 03:47:00,